Time;durP1;ratioP1;P1;durP2;ratioP2;P2;SDS_P1;SDS_P2;PMS_P1;PMS_P2;Temp;Humidity;BMP_temperature;BMP_pressure;BME280_temperature;BME280_humidity;BME280_pressure;Samples;Min_cycle;Max_cycle;Signal;HPM_P1;HPM_P2
2021/01/05 00:00:30;;;;;;;51.88;35.30;;;7.70;99.90;;;;;;6159616;23;20084;-87
2021/01/05 00:02:56;;;;;;;56.13;36.03;;;7.80;99.90;;;;;;6159266;23;20044;-84
2021/01/05 00:05:22;;;;;;;54.67;36.45;;;7.70;99.90;;;;;;6185749;23;20001;-85
2021/01/05 00:07:49;;;;;;;55.08;34.88;;;7.70;99.90;;;;;;6186464;23;20028;-87
2021/01/05 00:10:16;;;;;;;51.90;34.60;;;7.70;99.90;;;;;;6183004;23;20029;-88
2021/01/05 00:12:41;;;;;;;52.67;34.53;;;7.70;99.90;;;;;;6160331;23;20091;-88
2021/01/05 00:15:08;;;;;;;59.45;34.85;;;7.60;99.90;;;;;;6187602;23;20366;-87
2021/01/05 00:17:35;;;;;;;50.22;33.20;;;7.50;99.90;;;;;;6160182;23;20378;-86
2021/01/05 00:20:02;;;;;;;47.60;32.08;;;7.60;99.90;;;;;;6187212;23;20490;-87
2021/01/05 00:22:27;;;;;;;48.22;33.92;;;7.60;99.90;;;;;;6187476;23;20056;-85
2021/01/05 00:24:53;;;;;;;50.55;32.78;;;7.60;99.90;;;;;;6159881;23;20009;-88
2021/01/05 00:27:19;;;;;;;48.80;31.00;;;7.50;99.90;;;;;;6185334;23;20005;-81
2021/01/05 00:29:45;;;;;;;48.80;32.75;;;7.50;99.90;;;;;;6186168;23;20001;-83
2021/01/05 00:32:21;;;;;;;49.45;33.13;;;7.30;99.90;;;;;;6185270;23;20377;-85
2021/01/05 00:34:49;;;;;;;56.25;32.58;;;7.40;99.90;;;;;;6185081;23;20001;-85
2021/01/05 00:37:16;;;;;;;51.58;32.13;;;7.40;99.90;;;;;;6159341;23;20001;-87
2021/01/05 00:39:43;;;;;;;46.13;32.40;;;7.40;99.90;;;;;;6187385;23;20021;-86
2021/01/05 00:42:09;;;;;;;45.55;30.83;;;7.40;99.90;;;;;;6160060;23;20013;-85
2021/01/05 00:44:35;;;;;;;45.45;28.85;;;7.20;99.90;;;;;;6186257;23;20001;-85
2021/01/05 00:47:02;;;;;;;42.90;29.05;;;7.30;99.90;;;;;;6184135;23;20128;-85
2021/01/05 00:49:28;;;;;;;47.67;29.95;;;7.30;99.90;;;;;;6183408;23;20012;-86
2021/01/05 00:51:53;;;;;;;42.90;27.60;;;7.50;99.90;;;;;;6158332;23;20029;-86
2021/01/05 00:54:19;;;;;;;38.53;28.02;;;7.40;99.90;;;;;;6183815;23;20005;-84
2021/01/05 00:57:17;;;;;;;41.92;29.23;;;7.50;99.90;;;;;;6156821;23;20068;-83
2021/01/05 00:59:46;;;;;;;43.55;27.80;;;7.40;99.90;;;;;;6077185;23;20018;-84
2021/01/05 01:02:13;;;;;;;47.80;30.00;;;7.50;99.90;;;;;;6182900;23;20032;-82
2021/01/05 01:04:40;;;;;;;48.50;30.30;;;7.20;99.90;;;;;;6183525;23;20008;-85
2021/01/05 01:07:06;;;;;;;43.42;29.23;;;7.30;99.90;;;;;;6183503;23;20021;-87
2021/01/05 01:09:32;;;;;;;45.83;29.45;;;7.40;99.90;;;;;;6157646;23;20025;-84
2021/01/05 01:14:34;;;;;;;42.85;29.05;;;7.60;99.90;;;;;;6243371;23;20012;-85
2021/01/05 01:16:59;;;;;;;43.78;31.23;;;7.60;99.90;;;;;;6217389;23;20022;-87
2021/01/05 01:19:25;;;;;;;41.20;27.75;;;7.70;99.90;;;;;;6245608;23;20384;-87
2021/01/05 01:21:55;;;;;;;41.08;26.65;;;7.60;99.90;;;;;;6218211;23;20000;-88
2021/01/05 01:24:22;;;;;;;39.22;27.10;;;7.70;99.90;;;;;;6219140;23;20015;-86
2021/01/05 01:26:48;;;;;;;37.47;26.58;;;7.70;99.90;;;;;;6217967;23;20421;-82
2021/01/05 01:29:21;;;;;;;34.17;22.27;;;7.70;99.90;;;;;;6245139;23;20079;-86
2021/01/05 01:31:47;;;;;;;31.02;21.45;;;7.10;99.90;;;;;;6244675;23;20007;-83
2021/01/05 01:34:18;;;;;;;33.28;22.88;;;7.30;99.90;;;;;;6217784;23;20011;-82
2021/01/05 01:36:57;;;;;;;;;;;7.40;99.90;;;;;;6218415;23;20753;-87
2021/01/05 01:39:24;;;;;;;33.50;22.55;;;7.20;99.90;;;;;;6218225;23;20381;-86
2021/01/05 01:41:50;;;;;;;33.05;22.23;;;7.20;99.90;;;;;;6218314;23;20012;-86
2021/01/05 01:44:23;;;;;;;41.67;24.70;;;7.10;99.90;;;;;;6218324;23;20012;-84
2021/01/05 01:46:53;;;;;;;41.38;26.63;;;7.10;99.90;;;;;;6218208;23;20004;-85
2021/01/05 01:49:20;;;;;;;40.28;24.40;;;7.30;99.90;;;;;;6218505;23;20326;-86
2021/01/05 01:51:46;;;;;;;35.28;24.05;;;7.40;99.90;;;;;;6217771;23;20087;-82
2021/01/05 01:54:25;;;;;;;37.30;25.80;;;7.40;99.90;;;;;;6217839;23;20009;-85
2021/01/05 01:57:16;;;;;;;34.67;23.83;;;7.50;99.90;;;;;;6217896;23;20062;-83
2021/01/05 02:00:06;;;;;;;34.28;25.48;;;7.60;99.90;;;;;;6245823;23;20063;-85
2021/01/05 02:02:50;;;;;;;37.83;25.13;;;7.60;99.90;;;;;;6214947;23;20000;-83
2021/01/05 02:05:21;;;;;;;40.17;26.60;;;7.40;99.90;;;;;;6214970;23;20015;-87
2021/01/05 02:07:53;;;;;;;;;;;7.40;99.90;;;;;;6217413;23;20001;-86
2021/01/05 02:10:48;;;;;;;46.97;26.52;;;7.50;99.90;;;;;;6216503;23;19904;-86
2021/01/05 02:13:49;;;;;;;38.58;25.10;;;7.40;99.90;;;;;;6189814;23;20099;-86
2021/01/05 02:17:02;;;;;;;34.95;24.33;;;7.50;99.90;;;;;;6217539;23;20386;-84
2021/01/05 02:19:45;;;;;;;30.05;19.85;;;7.60;99.90;;;;;;6209558;23;20084;-83
2021/01/05 02:22:52;;;;;;;26.15;18.95;;;7.50;99.90;;;;;;6216291;23;20074;-88
2021/01/05 02:25:24;;;;;;;25.60;17.58;;;7.40;99.90;;;;;;6217821;23;20060;-87
2021/01/05 02:27:57;;;;;;;25.63;18.58;;;7.50;99.90;;;;;;6216036;23;20385;-86
2021/01/05 02:30:32;;;;;;;26.88;18.38;;;7.60;99.90;;;;;;6189707;23;20373;-89
2021/01/05 02:33:09;;;;;;;23.63;15.98;;;7.30;99.90;;;;;;6189011;23;20000;-85
2021/01/05 02:35:39;;;;;;;25.17;16.73;;;6.80;99.90;;;;;;6216177;23;20123;-85
2021/01/05 02:38:13;;;;;;;22.02;15.50;;;6.80;99.90;;;;;;6215747;23;20012;-87
2021/01/05 02:41:03;;;;;;;20.23;14.85;;;6.60;99.90;;;;;;6214571;23;19997;-85
2021/01/05 02:43:49;;;;;;;22.85;15.13;;;6.60;99.90;;;;;;6189038;23;20315;-84
2021/01/05 02:46:33;;;;;;;20.20;15.25;;;7.00;99.90;;;;;;6214953;23;19997;-84
2021/01/05 02:49:22;;;;;;;22.60;14.70;;;6.80;99.90;;;;;;6213275;23;20330;-83
2021/01/05 02:52:09;;;;;;;22.17;16.45;;;7.10;99.90;;;;;;6193031;23;20036;-84
2021/01/05 02:54:50;;;;;;;25.17;16.80;;;6.70;99.90;;;;;;6214331;23;20003;-82
2021/01/05 02:57:15;;;;;;;;;;;6.30;99.90;;;;;;6214326;23;20091;-87
2021/01/05 03:00:32;;;;;;;28.70;17.52;;;6.50;99.90;;;;;;6188889;23;19927;-83
2021/01/05 03:03:00;;;;;;;23.88;17.00;;;6.20;99.90;;;;;;6041102;23;20429;-85
2021/01/05 03:05:26;;;;;;;29.27;18.45;;;6.60;99.90;;;;;;6187181;23;19996;-84
2021/01/05 03:07:53;;;;;;;24.30;16.45;;;6.80;99.90;;;;;;6215632;23;20046;-84
2021/01/05 03:10:25;;;;;;;22.38;15.40;;;7.00;99.90;;;;;;6215370;23;20001;-86
2021/01/05 03:13:04;;;;;;;26.88;17.52;;;7.10;99.90;;;;;;6215095;23;20020;-86
2021/01/05 03:16:03;;;;;;;23.42;16.52;;;6.50;99.90;;;;;;6213806;23;20012;-87
2021/01/05 03:18:44;;;;;;;26.15;17.10;;;6.10;99.90;;;;;;6189564;23;20075;-85
2021/01/05 03:21:20;;;;;;;;;;;6.40;99.90;;;;;;6215375;23;20005;-85
2021/01/05 03:23:49;;;;;;;24.33;16.30;;;6.50;99.90;;;;;;6188819;23;19911;-84
2021/01/05 03:26:17;;;;;;;26.05;16.33;;;6.70;99.90;;;;;;6188951;23;20004;-84
2021/01/05 03:28:43;;;;;;;29.85;17.10;;;6.20;99.90;;;;;;6215995;23;20067;-84
2021/01/05 03:31:23;;;;;;;31.45;18.50;;;5.90;99.90;;;;;;6215546;23;19996;-83
2021/01/05 03:33:54;;;;;;;27.25;16.75;;;5.80;99.90;;;;;;6214090;23;20385;-87
2021/01/05 03:36:20;;;;;;;24.75;16.17;;;6.10;99.90;;;;;;6189579;23;20379;-86
2021/01/05 03:38:46;;;;;;;26.05;16.45;;;6.50;99.90;;;;;;6189522;23;20369;-86
2021/01/05 03:41:12;;;;;;;28.10;17.98;;;6.40;99.90;;;;;;6189536;23;20445;-88
2021/01/05 03:43:38;;;;;;;25.23;16.50;;;6.50;99.90;;;;;;6189951;23;20008;-86
2021/01/05 03:46:04;;;;;;;22.58;15.95;;;6.10;99.90;;;;;;6189455;23;19997;-85
2021/01/05 03:48:30;;;;;;;22.35;15.57;;;6.20;99.90;;;;;;6215247;23;20071;-84
2021/01/05 03:50:55;;;;;;;26.88;16.13;;;6.30;99.90;;;;;;6188863;23;20011;-86
2021/01/05 03:53:21;;;;;;;30.85;15.95;;;6.40;99.90;;;;;;6215295;23;20357;-86
2021/01/05 03:55:47;;;;;;;27.05;16.63;;;6.30;99.90;;;;;;6188415;23;19997;-86
2021/01/05 03:58:13;;;;;;;38.00;17.42;;;6.40;99.90;;;;;;6188711;23;20038;-86
2021/01/05 04:00:38;;;;;;;30.10;16.30;;;6.60;99.90;;;;;;6214346;23;19997;-84
2021/01/05 04:03:04;;;;;;;36.35;16.80;;;6.50;99.90;;;;;;6188430;23;20083;-84
2021/01/05 04:05:30;;;;;;;39.05;16.75;;;6.40;99.90;;;;;;6188405;23;20032;-85
2021/01/05 04:07:56;;;;;;;33.75;17.60;;;6.30;99.90;;;;;;6188196;23;20027;-85
2021/01/05 04:10:22;;;;;;;33.75;18.00;;;6.20;99.90;;;;;;6214858;23;20329;-84
2021/01/05 04:12:49;;;;;;;36.60;19.50;;;6.40;99.90;;;;;;6187626;23;20067;-85
2021/01/05 04:15:22;;;;;;;39.50;19.55;;;6.70;99.90;;;;;;6214290;23;20079;-86
2021/01/05 04:17:49;;;;;;;41.30;21.38;;;6.70;99.90;;;;;;6188012;23;20319;-83
2021/01/05 04:20:15;;;;;;;36.42;18.27;;;6.80;99.90;;;;;;6187984;23;20011;-86
2021/01/05 04:22:41;;;;;;;36.53;19.30;;;6.90;99.90;;;;;;6215953;23;20086;-83
2021/01/05 04:25:08;;;;;;;33.13;19.00;;;6.90;99.90;;;;;;6214700;23;19996;-85
2021/01/05 04:27:33;;;;;;;38.67;20.38;;;7.00;99.90;;;;;;6187904;23;20480;-89
2021/01/05 04:29:59;;;;;;;34.75;19.25;;;7.00;99.90;;;;;;6187845;23;20001;-87
2021/01/05 04:32:25;;;;;;;38.00;19.25;;;6.90;99.90;;;;;;6188275;23;20009;-81
2021/01/05 04:34:51;;;;;;;41.30;19.85;;;6.90;99.90;;;;;;6188014;23;20457;-87
2021/01/05 04:37:17;;;;;;;33.53;19.08;;;7.00;99.90;;;;;;6215458;23;20362;-85
2021/01/05 04:39:42;;;;;;;40.13;18.80;;;6.90;99.90;;;;;;6214949;23;19997;-83
2021/01/05 04:42:32;;;;;;;38.90;21.38;;;6.90;99.90;;;;;;6215282;23;20018;-85
2021/01/05 04:45:10;;;;;;;35.88;18.95;;;7.10;99.90;;;;;;6214862;23;20465;-84
2021/01/05 04:47:45;;;;;;;36.35;19.77;;;7.10;99.90;;;;;;6215223;23;20183;-88
2021/01/05 04:50:21;;;;;;;35.97;19.27;;;7.10;99.90;;;;;;6215478;23;20009;-86
2021/01/05 04:52:59;;;;;;;39.08;20.50;;;7.20;99.90;;;;;;6191261;23;19997;-85
2021/01/05 04:55:53;;;;;;;32.10;19.55;;;7.10;99.90;;;;;;6216549;23;20034;-86
2021/01/05 04:58:51;;;;;;;37.25;20.45;;;7.10;99.90;;;;;;6188413;23;20019;-86
2021/01/05 05:01:25;;;;;;;32.97;18.88;;;7.10;99.90;;;;;;6186876;23;20035;-84
2021/01/05 05:04:12;;;;;;;39.70;20.33;;;7.20;99.90;;;;;;6188228;23;20553;-84
2021/01/05 05:06:51;;;;;;;36.03;19.08;;;7.10;99.90;;;;;;6214441;23;20004;-88
2021/01/05 05:09:37;;;;;;;36.45;20.58;;;7.20;99.90;;;;;;6188035;23;20070;-87
2021/01/05 05:12:17;;;;;;;36.85;20.52;;;7.20;99.90;;;;;;6187840;23;20012;-89
2021/01/05 05:15:17;;;;;;;40.38;19.17;;;7.20;99.90;;;;;;6214365;23;20468;-87
2021/01/05 05:18:12;;;;;;;22.33;15.32;;;6.90;99.90;;;;;;6188178;23;20377;-89
2021/01/05 05:20:56;;;;;;;29.05;15.80;;;6.50;99.90;;;;;;6181841;23;20076;-88
2021/01/05 05:23:42;;;;;;;27.90;16.40;;;6.70;99.90;;;;;;6187520;23;20008;-87
2021/01/05 05:26:38;;;;;;;24.98;15.88;;;6.70;99.90;;;;;;6113454;23;20005;-87
2021/01/05 05:29:41;;;;;;;24.58;15.85;;;5.80;99.90;;;;;;6187562;23;20103;-85
2021/01/05 05:32:30;;;;;;;31.73;17.55;;;5.90;99.90;;;;;;6214061;23;20076;-86
2021/01/05 05:35:05;;;;;;;30.23;18.83;;;5.90;99.90;;;;;;6144121;23;20066;-88
2021/01/05 05:37:52;;;;;;;36.10;16.50;;;6.30;99.90;;;;;;6211662;23;20334;-83
2021/01/05 05:40:43;;;;;;;33.53;16.98;;;6.20;99.90;;;;;;6213176;23;20070;-83
2021/01/05 05:43:56;;;;;;;30.70;16.30;;;6.10;99.90;;;;;;6214131;23;20366;-84
2021/01/05 05:46:38;;;;;;;34.67;18.02;;;6.00;99.90;;;;;;6063304;23;20027;-82
2021/01/05 05:49:09;;;;;;;31.38;16.77;;;6.20;99.90;;;;;;6212701;23;20330;-86
2021/01/05 05:51:43;;;;;;;39.72;16.58;;;6.30;99.90;;;;;;6186829;23;20001;-84
2021/01/05 05:54:18;;;;;;;37.03;16.80;;;5.80;99.90;;;;;;6187682;23;20008;-87
2021/01/05 05:57:09;;;;;;;36.42;17.02;;;5.40;99.90;;;;;;6186699;23;20070;-86
2021/01/05 05:59:48;;;;;;;;;;;5.50;99.90;;;;;;6212497;23;20005;-85
2021/01/05 06:02:21;;;;;;;39.08;16.70;;;5.60;99.90;;;;;;6214503;23;19911;-87
2021/01/05 06:04:48;;;;;;;36.63;19.52;;;5.80;99.90;;;;;;6214273;23;20005;-87
2021/01/05 06:07:14;;;;;;;39.13;16.20;;;6.10;99.90;;;;;;6187154;23;20024;-87
2021/01/05 06:09:40;;;;;;;43.15;18.35;;;5.90;99.90;;;;;;6188715;23;20020;-83
2021/01/05 06:12:06;;;;;;;43.47;17.90;;;5.50;99.90;;;;;;6188902;23;20005;-86
2021/01/05 06:14:33;;;;;;;35.58;17.02;;;5.50;99.90;;;;;;6189125;23;20327;-88
2021/01/05 06:16:59;;;;;;;31.88;17.10;;;5.80;99.90;;;;;;6188329;23;20005;-88
2021/01/05 06:19:24;;;;;;;42.90;16.90;;;6.10;99.90;;;;;;6187747;23;20031;-81
2021/01/05 06:21:50;;;;;;;81.32;42.97;;;6.30;99.90;;;;;;6186168;23;20513;-84
2021/01/05 06:24:16;;;;;;;60.33;26.75;;;6.50;99.90;;;;;;6213510;23;20032;-82
2021/01/05 06:26:42;;;;;;;57.13;28.20;;;6.90;99.90;;;;;;6213162;23;20383;-84
2021/01/05 06:29:08;;;;;;;47.28;23.27;;;7.10;99.90;;;;;;6213128;23;20444;-81
2021/01/05 06:31:34;;;;;;;50.42;27.40;;;7.30;99.90;;;;;;6186553;23;20464;-83
2021/01/05 06:33:59;;;;;;;67.93;31.95;;;7.30;99.90;;;;;;6213615;23;20032;-82
2021/01/05 06:36:25;;;;;;;312.15;145.07;;;7.40;99.90;;;;;;6213416;23;20004;-82
2021/01/05 06:38:51;;;;;;;66.20;35.47;;;7.40;99.90;;;;;;6214214;23;20441;-89
2021/01/05 06:41:17;;;;;;;36.78;20.25;;;6.90;99.90;;;;;;6187899;23;20358;-87
2021/01/05 06:43:43;;;;;;;34.70;18.42;;;6.90;99.90;;;;;;6187409;23;20024;-86
2021/01/05 06:46:10;;;;;;;39.88;16.58;;;6.80;99.90;;;;;;6188183;23;20322;-88
2021/01/05 06:48:36;;;;;;;33.78;15.15;;;6.70;99.90;;;;;;6188965;23;20023;-83
2021/01/05 06:51:06;;;;;;;40.50;16.30;;;6.20;99.90;;;;;;6215556;23;20019;-85
2021/01/05 06:53:32;;;;;;;37.67;16.80;;;6.10;99.90;;;;;;6189548;23;20062;-86
2021/01/05 06:56:03;;;;;;;35.15;16.10;;;6.10;99.90;;;;;;6189145;23;20000;-85
2021/01/05 06:58:28;;;;;;;45.97;17.17;;;6.10;99.90;;;;;;6189784;23;20004;-84
2021/01/05 07:00:54;;;;;;;42.53;17.00;;;5.90;99.90;;;;;;6188843;23;20012;-84
2021/01/05 07:03:20;;;;;;;39.10;17.83;;;6.00;99.90;;;;;;6215333;23;20478;-84
2021/01/05 07:05:55;;;;;;;43.25;18.80;;;6.40;99.90;;;;;;6215107;23;20446;-84
2021/01/05 07:08:21;;;;;;;37.92;17.75;;;6.60;99.90;;;;;;6215001;23;20023;-83
2021/01/05 07:10:56;;;;;;;49.28;17.42;;;6.20;99.90;;;;;;6188630;23;20012;-87
2021/01/05 07:13:22;;;;;;;35.90;17.75;;;5.80;99.90;;;;;;6188948;23;20024;-85
2021/01/05 07:15:48;;;;;;;34.70;17.02;;;5.80;99.90;;;;;;6215438;23;20024;-84
2021/01/05 07:18:14;;;;;;;36.67;17.77;;;6.10;99.90;;;;;;6215346;23;20007;-82
2021/01/05 07:20:39;;;;;;;41.72;17.63;;;6.40;99.90;;;;;;6188980;23;20012;-82
2021/01/05 07:23:05;;;;;;;30.30;15.60;;;6.70;99.90;;;;;;6188474;23;20004;-84
2021/01/05 07:25:31;;;;;;;36.35;17.48;;;6.30;99.90;;;;;;6215337;23;20000;-84
2021/01/05 07:27:57;;;;;;;36.22;16.27;;;6.50;99.90;;;;;;6189273;23;20067;-83
2021/01/05 07:30:23;;;;;;;35.42;15.73;;;6.60;99.90;;;;;;6189202;23;20036;-85
2021/01/05 07:32:48;;;;;;;32.22;15.85;;;6.80;99.90;;;;;;6215057;23;20020;-85
2021/01/05 07:35:14;;;;;;;34.75;15.77;;;6.50;99.90;;;;;;6188211;23;20004;-85
2021/01/05 07:37:43;;;;;;;34.47;17.08;;;6.20;99.90;;;;;;6188019;23;20005;-84
2021/01/05 07:40:10;;;;;;;34.17;17.33;;;6.30;99.90;;;;;;6215004;23;20063;-86
2021/01/05 07:42:36;;;;;;;40.47;18.20;;;6.60;99.90;;;;;;6188677;23;20427;-83
2021/01/05 07:45:09;;;;;;;37.60;16.17;;;6.70;99.90;;;;;;6189115;23;20011;-83
2021/01/05 07:47:37;;;;;;;37.53;18.40;;;6.80;99.90;;;;;;6214820;23;20373;-83
2021/01/05 07:50:07;;;;;;;35.15;16.52;;;6.90;99.90;;;;;;6215284;23;20028;-86
2021/01/05 07:52:42;;;;;;;37.47;16.80;;;7.00;99.90;;;;;;6214495;23;20067;-86
2021/01/05 07:55:18;;;;;;;33.67;15.93;;;7.00;99.90;;;;;;6188046;23;20265;-86
2021/01/05 07:57:44;;;;;;;34.95;17.88;;;6.90;99.90;;;;;;6188128;23;20016;-81
2021/01/05 08:00:21;;;;;;;36.38;17.27;;;6.80;99.90;;;;;;6215002;23;20022;-86
2021/01/05 08:02:47;;;;;;;35.53;16.02;;;6.60;99.90;;;;;;6188252;23;20028;-87
2021/01/05 08:05:15;;;;;;;37.70;17.63;;;6.90;99.90;;;;;;6188536;23;20004;-82
2021/01/05 08:07:42;;;;;;;37.25;17.95;;;6.90;99.90;;;;;;6214170;23;20403;-83
2021/01/05 08:10:14;;;;;;;34.90;17.88;;;6.90;99.90;;;;;;6188233;23;20438;-83
2021/01/05 08:12:40;;;;;;;36.30;17.88;;;7.00;99.90;;;;;;6212124;23;20488;-85
2021/01/05 08:15:12;;;;;;;32.88;17.58;;;7.10;99.90;;;;;;6215265;23;20013;-85
2021/01/05 08:17:41;;;;;;;34.30;17.25;;;6.80;99.90;;;;;;6214654;23;20005;-85
2021/01/05 08:20:07;;;;;;;36.58;19.05;;;6.90;99.90;;;;;;6214595;23;20001;-83
2021/01/05 08:22:33;;;;;;;41.35;19.65;;;7.10;99.90;;;;;;6214416;23;20433;-85
2021/01/05 08:24:59;;;;;;;35.50;19.42;;;6.80;99.90;;;;;;6188155;23;20492;-87
2021/01/05 08:27:25;;;;;;;31.55;18.60;;;6.60;99.90;;;;;;6187797;23;20059;-85
2021/01/05 08:29:51;;;;;;;36.35;19.70;;;6.80;99.90;;;;;;6188287;23;20012;-85
2021/01/05 08:32:17;;;;;;;42.92;19.60;;;7.00;99.90;;;;;;6187940;23;20366;-86
2021/01/05 08:34:45;;;;;;;36.47;18.35;;;7.20;99.90;;;;;;6187806;23;20004;-84
2021/01/05 08:37:12;;;;;;;33.75;19.13;;;7.30;99.90;;;;;;6214738;23;20009;-83
2021/01/05 08:39:37;;;;;;;33.80;19.25;;;7.30;99.90;;;;;;6215015;23;20447;-85
2021/01/05 08:42:04;;;;;;;34.72;19.15;;;7.40;99.90;;;;;;6214137;23;20029;-83
2021/01/05 08:44:29;;;;;;;29.50;17.23;;;7.40;99.90;;;;;;6188109;23;20303;-83
2021/01/05 08:47:00;;;;;;;31.08;17.73;;;7.50;99.90;;;;;;6187795;23;20426;-86
2021/01/05 08:49:29;;;;;;;;;;;7.50;99.90;;;;;;6214619;23;20379;-86
2021/01/05 08:51:56;;;;;;;30.88;17.13;;;7.50;99.90;;;;;;6214362;23;19904;-86
2021/01/05 08:54:22;;;;;;;36.65;19.48;;;7.40;99.90;;;;;;6188127;23;20001;-86
2021/01/05 08:56:55;;;;;;;41.55;19.77;;;7.40;99.90;;;;;;6187722;23;20008;-82
2021/01/05 08:59:21;;;;;;;37.10;19.08;;;7.40;99.90;;;;;;6214184;23;20036;-86
2021/01/05 09:01:48;;;;;;;42.17;19.90;;;7.40;99.90;;;;;;6188028;23;20445;-83
2021/01/05 09:04:14;;;;;;;35.45;18.98;;;7.40;99.90;;;;;;6213437;23;20001;-86
2021/01/05 09:06:54;;;;;;;35.38;18.65;;;7.30;99.90;;;;;;6187511;23;20005;-86
2021/01/05 09:09:20;;;;;;;40.50;20.98;;;7.30;99.90;;;;;;6187701;23;20008;-85
2021/01/05 09:11:52;;;;;;;40.05;18.77;;;7.30;99.90;;;;;;6214672;23;20075;-85
2021/01/05 09:14:17;;;;;;;36.92;18.63;;;7.30;99.90;;;;;;6214461;23;20020;-84
2021/01/05 09:16:43;;;;;;;35.40;19.23;;;7.30;99.90;;;;;;6214135;23;20417;-84
2021/01/05 09:19:09;;;;;;;39.13;19.88;;;7.10;99.90;;;;;;6187182;23;20011;-85
2021/01/05 09:21:35;;;;;;;41.28;21.10;;;7.20;99.90;;;;;;6187629;23;20008;-86
2021/01/05 09:24:02;;;;;;;48.50;22.58;;;7.20;99.90;;;;;;6187304;23;20004;-84
2021/01/05 09:26:33;;;;;;;44.20;21.92;;;7.40;99.90;;;;;;6214423;23;20005;-85
2021/01/05 09:29:01;;;;;;;45.28;21.88;;;7.20;99.90;;;;;;6187567;23;20385;-86
2021/01/05 09:31:26;;;;;;;42.25;22.05;;;7.10;99.90;;;;;;6214497;23;20051;-84
2021/01/05 09:33:53;;;;;;;38.72;20.77;;;7.20;99.90;;;;;;6213835;23;19997;-85
2021/01/05 09:36:18;;;;;;;44.70;22.13;;;7.00;99.90;;;;;;6188193;23;20426;-86
2021/01/05 09:38:45;;;;;;;44.33;22.73;;;7.20;99.90;;;;;;6214405;23;20003;-83
2021/01/05 09:41:27;;;;;;;44.55;21.67;;;7.20;99.90;;;;;;6187232;23;20429;-85
2021/01/05 09:43:53;;;;;;;42.90;22.67;;;7.40;99.90;;;;;;6187596;23;20009;-86
2021/01/05 09:46:20;;;;;;;51.20;24.55;;;7.50;99.90;;;;;;6187684;23;19993;-84
2021/01/05 09:48:47;;;;;;;46.28;23.15;;;7.40;99.90;;;;;;6187424;23;20463;-86
2021/01/05 09:51:20;;;;;;;47.05;24.23;;;7.40;99.90;;;;;;6187652;23;20005;-85
2021/01/05 09:53:46;;;;;;;46.20;23.73;;;7.30;99.90;;;;;;6186999;23;20334;-86
2021/01/05 09:56:12;;;;;;;49.85;23.67;;;7.30;99.90;;;;;;6188445;23;20406;-85
2021/01/05 09:58:38;;;;;;;55.95;25.33;;;7.30;99.90;;;;;;6188119;23;20059;-85
2021/01/05 10:01:04;;;;;;;45.47;24.00;;;7.40;99.90;;;;;;6187598;23;20303;-87
2021/01/05 10:03:30;;;;;;;47.08;23.77;;;7.40;99.90;;;;;;6162442;23;20013;-86
2021/01/05 10:05:57;;;;;;;48.20;22.45;;;7.50;99.90;;;;;;6188188;23;20430;-87
2021/01/05 10:08:23;;;;;;;47.38;23.45;;;7.50;99.90;;;;;;6187313;23;20008;-86
2021/01/05 10:10:49;;;;;;;48.28;23.38;;;7.60;99.90;;;;;;6163048;23;20008;-85
2021/01/05 10:13:15;;;;;;;46.60;22.92;;;7.70;99.90;;;;;;6186752;23;20009;-86
2021/01/05 10:15:40;;;;;;;49.40;23.90;;;7.70;99.90;;;;;;6214279;23;20012;-85
2021/01/05 10:18:06;;;;;;;48.75;23.27;;;7.50;99.90;;;;;;6187876;23;20062;-86
2021/01/05 10:20:32;;;;;;;50.33;25.90;;;7.60;99.90;;;;;;6216331;23;20333;-84
2021/01/05 10:22:58;;;;;;;52.15;24.95;;;7.60;99.90;;;;;;6189834;23;20009;-86
2021/01/05 10:25:24;;;;;;;47.17;23.40;;;7.70;99.90;;;;;;6189100;23;20417;-85
2021/01/05 10:27:50;;;;;;;47.97;24.83;;;7.50;99.90;;;;;;6189111;23;20023;-85
2021/01/05 10:30:19;;;;;;;50.15;25.73;;;7.60;99.90;;;;;;6189062;23;20008;-86
2021/01/05 10:32:45;;;;;;;52.60;25.70;;;7.70;99.90;;;;;;6188393;23;19997;-81
2021/01/05 10:35:19;;;;;;;56.55;26.40;;;7.40;99.90;;;;;;6211476;23;20011;-85
2021/01/05 10:37:46;;;;;;;50.17;25.35;;;7.60;99.90;;;;;;6187572;23;20054;-83
2021/01/05 10:40:14;;;;;;;55.35;26.13;;;7.70;99.90;;;;;;6214082;23;20008;-86
2021/01/05 10:45:34;;;;;;;52.85;23.33;;;7.80;99.90;;;;;;6167908;23;20000;-86
2021/01/05 10:48:00;;;;;;;44.97;24.13;;;8.00;99.90;;;;;;6187864;23;20377;-85
2021/01/05 10:50:26;;;;;;;49.80;23.80;;;8.00;99.90;;;;;;6213639;23;20360;-86
2021/01/05 10:52:52;;;;;;;46.03;23.50;;;8.00;99.90;;;;;;6187278;23;20068;-84
2021/01/05 10:55:28;;;;;;;45.75;25.38;;;8.30;99.90;;;;;;6208439;23;20008;-84
2021/01/05 10:57:54;;;;;;;49.80;24.08;;;8.70;99.90;;;;;;6181749;23;20753;-87
2021/01/05 11:00:21;;;;;;;42.85;23.40;;;8.70;99.90;;;;;;6208161;23;21024;-86
2021/01/05 11:02:47;;;;;;;46.83;24.08;;;8.70;99.90;;;;;;6208131;23;20004;-85
2021/01/05 11:05:17;;;;;;;47.47;23.83;;;9.10;99.90;;;;;;6205490;23;20070;-85
2021/01/05 11:07:48;;;;;;;53.05;25.23;;;8.90;99.90;;;;;;6207993;23;20008;-85
2021/01/05 11:10:14;;;;;;;;;;;8.80;99.90;;;;;;6179236;23;20036;-84
2021/01/05 11:12:40;;;;;;;41.17;21.70;;;9.00;99.90;;;;;;6179201;23;19948;-83
2021/01/05 11:15:06;;;;;;;45.25;23.35;;;8.80;99.90;;;;;;6181527;23;20013;-85
2021/01/05 11:17:32;;;;;;;53.08;24.95;;;8.60;99.90;;;;;;6187826;23;20533;-87
2021/01/05 11:19:58;;;;;;;45.58;23.10;;;8.30;99.90;;;;;;6214289;23;20016;-87
2021/01/05 11:22:24;;;;;;;49.45;25.13;;;8.10;99.90;;;;;;6187953;23;20028;-84
2021/01/05 11:24:49;;;;;;;47.38;23.50;;;8.00;99.90;;;;;;6212745;23;20000;-84
2021/01/05 11:27:22;;;;;;;52.95;25.85;;;8.10;99.90;;;;;;6188658;23;20005;-84
2021/01/05 11:29:47;;;;;;;53.65;25.65;;;8.10;99.90;;;;;;6213465;23;20027;-84
2021/01/05 11:32:18;;;;;;;52.20;25.70;;;8.10;99.90;;;;;;6214600;23;20083;-85
2021/01/05 11:34:44;;;;;;;;;;;8.10;99.90;;;;;;6214548;23;20032;-87
2021/01/05 11:37:13;;;;;;;51.05;24.70;;;8.20;99.90;;;;;;6188116;23;19955;-86
2021/01/05 11:39:46;;;;;;;50.95;25.15;;;8.00;99.90;;;;;;6186686;23;20005;-87
2021/01/05 11:42:14;;;;;;;51.35;25.23;;;7.80;99.90;;;;;;6187755;23;20000;-84
2021/01/05 11:44:41;;;;;;;55.95;25.98;;;7.90;99.90;;;;;;6214054;23;20076;-87
2021/01/05 11:47:07;;;;;;;50.55;25.60;;;8.00;99.90;;;;;;6214555;23;20000;-84
2021/01/05 11:49:33;;;;;;;63.22;25.67;;;8.00;99.90;;;;;;6214478;23;20040;-89
2021/01/05 11:51:59;;;;;;;56.05;25.85;;;8.10;99.90;;;;;;6214681;23;20323;-84
2021/01/05 11:54:26;;;;;;;51.33;26.70;;;8.00;99.90;;;;;;6187621;23;20453;-85
2021/01/05 11:56:59;;;;;;;53.10;26.48;;;8.10;99.90;;;;;;6188039;23;20032;-85
2021/01/05 11:59:26;;;;;;;52.70;27.42;;;8.00;99.90;;;;;;6214163;23;20030;-83
2021/01/05 12:01:52;;;;;;;56.63;27.33;;;7.90;99.90;;;;;;6188872;23;20032;-85
2021/01/05 12:04:18;;;;;;;57.08;26.88;;;8.00;99.90;;;;;;6188018;23;20008;-85
2021/01/05 12:06:49;;;;;;;55.92;25.95;;;7.90;99.90;;;;;;6188242;23;20000;-82
2021/01/05 12:09:15;;;;;;;52.47;27.05;;;7.70;99.90;;;;;;6188074;23;20063;-82
2021/01/05 12:11:41;;;;;;;53.50;25.50;;;7.80;99.90;;;;;;6187699;23;20366;-84
2021/01/05 12:14:06;;;;;;;56.60;26.80;;;7.90;99.90;;;;;;6214201;23;20020;-88
2021/01/05 12:16:38;;;;;;;57.08;28.08;;;8.10;99.90;;;;;;6161807;23;20008;-85
2021/01/05 12:19:12;;;;;;;62.55;28.35;;;8.00;99.90;;;;;;6190599;23;20341;-83
2021/01/05 12:21:42;;;;;;;56.63;27.42;;;8.20;99.90;;;;;;6188741;23;20008;-84
2021/01/05 12:24:29;;;;;;;58.78;28.73;;;8.20;99.90;;;;;;6213882;23;20028;-84
2021/01/05 12:26:57;;;;;;;55.33;27.30;;;8.30;99.90;;;;;;6213626;23;20080;-84
2021/01/05 12:29:26;;;;;;;58.88;27.35;;;8.30;99.90;;;;;;6213640;23;20067;-83
2021/01/05 12:31:58;;;;;;;56.63;27.20;;;8.20;99.90;;;;;;6213492;23;20008;-82
2021/01/05 12:34:27;;;;;;;49.60;28.13;;;8.00;99.90;;;;;;6213398;23;20035;-83
2021/01/05 12:36:54;;;;;;;55.25;27.58;;;8.10;99.90;;;;;;6185723;23;20007;-84
2021/01/05 12:39:28;;;;;;;58.17;28.52;;;8.10;99.90;;;;;;6185556;23;20303;-82
2021/01/05 12:41:54;;;;;;;57.83;28.65;;;8.20;99.90;;;;;;6211460;23;20072;-83
2021/01/05 12:44:26;;;;;;;59.28;29.02;;;8.00;99.90;;;;;;6212241;23;20458;-80
2021/01/05 12:46:53;;;;;;;54.13;27.80;;;8.00;99.90;;;;;;6185108;23;20020;-83
2021/01/05 12:49:19;;;;;;;52.42;26.85;;;8.10;99.90;;;;;;6212414;23;20083;-82
2021/01/05 12:51:47;;;;;;;51.25;26.50;;;8.10;99.90;;;;;;6185685;23;20032;-81
2021/01/05 12:54:18;;;;;;;48.88;25.38;;;8.00;99.90;;;;;;6187226;23;20012;-84
2021/01/05 12:56:44;;;;;;;51.33;25.55;;;7.70;99.90;;;;;;6213353;23;19993;-82
2021/01/05 12:59:12;;;;;;;46.65;25.55;;;7.80;99.90;;;;;;6187020;23;20070;-80
2021/01/05 13:01:38;;;;;;;55.28;25.60;;;7.80;99.90;;;;;;6214212;23;20445;-82